Time;durP1;ratioP1;P1;durP2;ratioP2;P2;SDS_P1;SDS_P2;PMS_P1;PMS_P2;Temp;Humidity;BMP_temperature;BMP_pressure;BME280_temperature;BME280_humidity;BME280_pressure;Samples;Min_cycle;Max_cycle;Signal;HPM_P1;HPM_P2
2020/12/13 00:00:35;;;;;;;20.07;10.17;;;;;;;7.53;nan;95498.28;4975383;28;21117;-69
2020/12/13 00:03:02;;;;;;;13.38;5.45;;;;;;;7.41;nan;95496.50;4975569;28;20957;-68
2020/12/13 00:05:30;;;;;;;10.50;5.32;;;;;;;7.26;nan;95505.28;4976536;28;20547;-69
2020/12/13 00:07:58;;;;;;;19.37;6.73;;;;;;;7.22;nan;95509.84;4975994;28;20679;-70
2020/12/13 00:10:25;;;;;;;11.05;4.97;;;;;;;7.05;nan;95507.53;4975664;28;20961;-69
2020/12/13 00:12:52;;;;;;;13.10;6.32;;;;;;;6.90;nan;95499.94;4975718;28;20288;-71
2020/12/13 00:15:19;;;;;;;6.95;4.43;;;;;;;6.91;nan;95511.97;4975982;28;20314;-71
2020/12/13 00:17:47;;;;;;;8.90;5.10;;;;;;;6.82;nan;95522.91;4975794;28;20297;-69
2020/12/13 00:20:14;;;;;;;11.93;5.10;;;;;;;6.79;nan;95512.75;4980471;28;20221;-70
2020/12/13 00:22:41;;;;;;;8.55;4.57;;;;;;;6.82;nan;95513.41;4975898;28;20232;-70
2020/12/13 00:25:09;;;;;;;9.48;4.60;;;;;;;6.77;nan;95527.56;4974569;28;20255;-71
2020/12/13 00:27:36;;;;;;;7.53;4.82;;;;;;;6.74;nan;95525.16;4976602;28;20603;-69
2020/12/13 00:30:04;;;;;;;6.45;3.33;;;;;;;6.64;nan;95529.25;4976097;28;20221;-71
2020/12/13 00:32:31;;;;;;;10.93;4.28;;;;;;;6.65;nan;95536.09;4975914;28;20281;-71
2020/12/13 00:34:59;;;;;;;14.18;5.38;;;;;;;6.64;nan;95534.44;4975810;28;20791;-69
2020/12/13 00:37:26;;;;;;;6.85;3.97;;;;;;;6.64;nan;95530.06;4976205;28;20301;-71
2020/12/13 00:39:53;;;;;;;9.88;4.50;;;;;;;6.65;nan;95543.84;4975149;28;20236;-74
2020/12/13 00:42:21;;;;;;;5.13;2.70;;;;;;;6.59;nan;95531.28;4975908;28;20242;-69
2020/12/13 00:44:48;;;;;;;5.25;3.25;;;;;;;6.70;nan;95539.22;4975667;28;20214;-73
2020/12/13 00:47:15;;;;;;;6.97;3.40;;;;;;;6.72;nan;95547.69;4976052;28;20633;-68
2020/12/13 00:49:42;;;;;;;8.32;2.90;;;;;;;6.75;nan;95548.31;4975635;28;20243;-70
2020/12/13 00:52:09;;;;;;;3.65;2.50;;;;;;;6.73;nan;95544.19;4976058;28;20285;-71
2020/12/13 00:54:35;;;;;;;4.90;2.70;;;;;;;6.71;nan;95548.63;4978497;28;20671;-70
2020/12/13 00:57:02;;;;;;;4.65;2.63;;;;;;;6.71;nan;95546.03;4979684;28;20640;-68
2020/12/13 00:59:30;;;;;;;4.68;2.15;;;;;;;6.70;nan;95552.94;4978151;28;20321;-68
2020/12/13 01:01:56;;;;;;;2.88;2.05;;;;;;;6.73;nan;95555.38;4978719;28;20193;-68
2020/12/13 01:04:24;;;;;;;4.15;2.53;;;;;;;6.77;nan;95556.00;4978816;28;20656;-69
2020/12/13 01:06:50;;;;;;;4.45;2.17;;;;;;;6.86;nan;95556.22;4979238;28;20546;-67
2020/12/13 01:09:17;;;;;;;4.75;2.20;;;;;;;6.91;nan;95553.34;4978912;28;20336;-69
2020/12/13 01:11:44;;;;;;;8.27;2.30;;;;;;;6.97;nan;95553.78;4978835;28;20186;-69
2020/12/13 01:14:11;;;;;;;3.42;2.30;;;;;;;6.93;nan;95561.84;4978282;28;20735;-68
2020/12/13 01:16:39;;;;;;;4.00;2.45;;;;;;;6.91;nan;95556.75;4982436;28;20692;-71
2020/12/13 01:19:06;;;;;;;3.72;1.90;;;;;;;6.94;nan;95566.94;4979173;28;20251;-71
2020/12/13 01:21:33;;;;;;;6.22;1.80;;;;;;;6.88;nan;95571.63;4981956;28;20288;-68
2020/12/13 01:24:00;;;;;;;6.15;2.20;;;;;;;6.84;nan;95565.03;4978425;28;20317;-68
2020/12/13 01:26:27;;;;;;;2.30;1.70;;;;;;;6.85;nan;95574.44;4978915;28;20248;-69
2020/12/13 01:28:55;;;;;;;2.95;2.15;;;;;;;6.83;nan;95581.44;4974578;28;20225;-70
2020/12/13 01:31:23;;;;;;;4.80;1.73;;;;;;;6.83;nan;95584.03;4978433;28;20198;-69
2020/12/13 01:33:53;;;;;;;2.10;1.70;;;;;;;6.86;nan;95578.69;4978051;28;20761;-68
2020/12/13 01:36:22;;;;;;;2.38;1.80;;;;;;;6.90;nan;95588.72;4978589;28;20538;-69
2020/12/13 01:38:50;;;;;;;2.05;1.27;;;;;;;6.91;nan;95592.97;4978451;28;20229;-69
2020/12/13 01:41:18;;;;;;;3.20;1.45;;;;;;;6.93;nan;95592.88;4978756;28;20712;-69
2020/12/13 01:43:55;;;;;;;2.00;1.48;;;;;;;6.95;nan;95598.78;4977326;28;20931;-71
2020/12/13 01:46:22;;;;;;;4.25;1.73;;;;;;;6.94;nan;95594.53;4978958;28;20276;-69
2020/12/13 01:48:57;;;;;;;3.50;1.50;;;;;;;6.82;nan;95595.31;4977759;28;20538;-72
2020/12/13 01:51:35;;;;;;;2.58;1.60;;;;;;;6.87;nan;95599.28;4977360;28;20288;-71
2020/12/13 01:54:04;;;;;;;2.25;1.40;;;;;;;6.74;nan;95584.63;4974343;28;20385;-72
2020/12/13 01:56:32;;;;;;;2.00;1.13;;;;;;;6.83;nan;95607.31;4978019;28;20309;-71
2020/12/13 01:59:02;;;;;;;1.90;1.63;;;;;;;6.83;nan;95612.47;4977731;28;20236;-69
2020/12/13 02:01:29;;;;;;;2.88;1.40;;;;;;;6.91;nan;95620.59;4976652;28;20321;-69
2020/12/13 02:04:01;;;;;;;2.15;1.20;;;;;;;6.89;nan;95622.44;4977536;28;20213;-71
2020/12/13 02:06:31;;;;;;;1.80;1.20;;;;;;;6.87;nan;95629.47;4975933;28;20645;-72
2020/12/13 02:08:58;;;;;;;2.03;1.20;;;;;;;6.87;nan;95626.88;4973849;28;20492;-71
2020/12/13 02:11:25;;;;;;;2.10;1.40;;;;;;;6.74;nan;95618.22;4977071;28;20186;-69
2020/12/13 02:13:52;;;;;;;2.15;1.30;;;;;;;6.74;nan;95623.41;4977215;28;20728;-70
2020/12/13 02:16:19;;;;;;;3.73;1.20;;;;;;;6.73;nan;95621.75;4977476;28;20688;-69
2020/12/13 02:18:47;;;;;;;4.30;1.20;;;;;;;6.68;nan;95629.78;4977287;28;20845;-69
2020/12/13 02:21:15;;;;;;;3.92;1.38;;;;;;;6.63;nan;95625.84;4980593;28;20643;-70
2020/12/13 02:23:44;;;;;;;1.10;0.85;;;;;;;6.64;nan;95627.50;4976804;28;20225;-71
2020/12/13 02:26:12;;;;;;;4.90;1.75;;;;;;;6.61;nan;95633.69;4978371;28;20587;-69
2020/12/13 02:28:39;;;;;;;2.83;1.20;;;;;;;6.58;nan;95638.22;4976031;28;20225;-69
2020/12/13 02:31:07;;;;;;;1.65;1.20;;;;;;;6.65;nan;95629.16;4977452;28;20248;-70
2020/12/13 02:33:35;;;;;;;1.70;1.42;;;;;;;6.61;nan;95631.09;4977281;28;20257;-72
2020/12/13 02:36:03;;;;;;;1.45;1.35;;;;;;;6.61;nan;95638.00;4977253;28;20489;-69
2020/12/13 02:38:31;;;;;;;1.48;1.23;;;;;;;6.56;nan;95619.38;4976754;28;20341;-70
2020/12/13 02:40:59;;;;;;;2.05;1.15;;;;;;;6.67;nan;95647.97;4977244;28;20685;-71
2020/12/13 02:43:26;;;;;;;2.53;1.40;;;;;;;6.61;nan;95641.44;4976399;28;20253;-70
2020/12/13 02:45:53;;;;;;;3.00;1.37;;;;;;;6.68;nan;95640.13;4978134;28;20669;-73
2020/12/13 02:48:21;;;;;;;1.92;1.40;;;;;;;6.66;nan;95636.81;4977225;28;20563;-69
2020/12/13 02:50:47;;;;;;;1.85;1.00;;;;;;;6.77;nan;95654.25;4977220;28;20229;-73
2020/12/13 02:53:15;;;;;;;3.50;1.05;;;;;;;6.76;nan;95653.41;4976912;28;20241;-69
2020/12/13 02:55:42;;;;;;;2.83;1.10;;;;;;;6.80;nan;95657.47;4976995;28;20281;-70
2020/12/13 02:58:09;;;;;;;1.00;0.90;;;;;;;6.92;nan;95658.47;4976654;28;20241;-70
2020/12/13 03:00:36;;;;;;;2.35;1.40;;;;;;;6.95;nan;95660.84;4975962;28;20453;-72
2020/12/13 03:03:03;;;;;;;1.45;0.90;;;;;;;6.95;nan;95659.09;4975889;28;20208;-71
2020/12/13 03:05:30;;;;;;;2.95;1.10;;;;;;;6.93;nan;95662.72;4976603;28;20304;-69
2020/12/13 03:07:58;;;;;;;1.58;0.90;;;;;;;6.97;nan;95662.41;4976272;28;20631;-69
2020/12/13 03:10:25;;;;;;;1.23;1.03;;;;;;;6.91;nan;95657.63;4976919;28;20595;-69
2020/12/13 03:12:51;;;;;;;1.20;0.90;;;;;;;6.85;nan;95647.66;4976248;28;20535;-70
2020/12/13 03:15:19;;;;;;;3.30;1.20;;;;;;;6.92;nan;95663.66;4977035;28;20282;-70
2020/12/13 03:17:46;;;;;;;4.00;1.00;;;;;;;6.98;nan;95666.66;4977035;28;20680;-70
2020/12/13 03:20:13;;;;;;;2.42;1.10;;;;;;;7.03;nan;95667.22;4979080;28;20686;-73
2020/12/13 03:22:40;;;;;;;1.80;0.90;;;;;;;7.07;nan;95673.03;4977869;28;20661;-71
2020/12/13 03:25:07;;;;;;;1.60;1.00;;;;;;;7.16;nan;95670.69;4976106;28;20320;-70
2020/12/13 03:27:34;;;;;;;3.65;1.23;;;;;;;7.09;nan;95676.34;4976814;28;20197;-72
2020/12/13 03:30:00;;;;;;;2.25;1.00;;;;;;;7.19;nan;95683.41;4976182;28;20304;-69
2020/12/13 03:32:28;;;;;;;6.33;1.37;;;;;;;7.18;nan;95681.75;4973893;28;20595;-72
2020/12/13 03:34:58;;;;;;;1.60;1.27;;;;;;;7.20;nan;95679.91;4972594;28;20473;-71
2020/12/13 03:37:25;;;;;;;1.88;1.15;;;;;;;7.16;nan;95678.47;4976338;28;20312;-71
2020/12/13 03:39:52;;;;;;;3.17;1.40;;;;;;;7.20;nan;95684.25;4976234;28;20631;-71
2020/12/13 03:42:19;;;;;;;2.60;1.40;;;;;;;7.12;nan;95692.50;4976077;28;20518;-68
2020/12/13 03:44:45;;;;;;;3.70;1.00;;;;;;;7.20;nan;95694.63;4975665;28;20507;-68
2020/12/13 03:47:12;;;;;;;1.77;1.10;;;;;;;7.20;nan;95697.19;4976435;28;20952;-68
2020/12/13 03:49:40;;;;;;;2.45;1.33;;;;;;;7.20;nan;95695.44;4976294;28;21018;-73
2020/12/13 03:52:07;;;;;;;2.20;1.53;;;;;;;7.11;nan;95696.00;4976430;28;20381;-72
2020/12/13 03:54:34;;;;;;;2.00;1.40;;;;;;;7.00;nan;95705.38;4975326;28;20473;-72
2020/12/13 03:57:00;;;;;;;4.00;1.70;;;;;;;6.91;nan;95708.53;4976138;28;20521;-71
2020/12/13 03:59:27;;;;;;;1.65;1.20;;;;;;;6.88;nan;95706.13;4974691;28;20237;-71
2020/12/13 04:01:54;;;;;;;1.93;1.10;;;;;;;6.81;nan;95713.44;4973689;28;20241;-72
2020/12/13 04:04:21;;;;;;;1.33;1.07;;;;;;;6.79;nan;95725.63;4975782;28;20926;-71
2020/12/13 04:06:49;;;;;;;1.35;1.17;;;;;;;6.66;nan;95718.72;4979600;28;20821;-68
2020/12/13 04:09:16;;;;;;;3.22;1.25;;;;;;;6.62;nan;95718.06;4975653;28;20300;-69
2020/12/13 04:11:42;;;;;;;1.92;1.20;;;;;;;6.57;nan;95724.44;4976199;28;20677;-68
2020/12/13 04:14:09;;;;;;;3.65;1.63;;;;;;;6.61;nan;95736.25;4975863;28;20788;-69
2020/12/13 04:16:36;;;;;;;1.63;1.20;;;;;;;6.61;nan;95741.41;4976153;28;20699;-68
2020/12/13 04:19:03;;;;;;;5.82;1.30;;;;;;;6.55;nan;95741.81;4975705;28;20860;-69
2020/12/13 04:21:30;;;;;;;1.60;1.02;;;;;;;6.55;nan;95741.81;4979303;28;20293;-69
2020/12/13 04:23:58;;;;;;;4.30;1.75;;;;;;;6.60;nan;95739.75;4975419;28;20340;-68
2020/12/13 04:26:24;;;;;;;10.45;2.40;;;;;;;6.69;nan;95746.97;4975486;28;20229;-67
2020/12/13 04:28:51;;;;;;;2.88;2.30;;;;;;;6.77;nan;95742.16;4977176;28;20750;-69
2020/12/13 04:31:18;;;;;;;3.03;1.90;;;;;;;6.82;nan;95740.13;4979639;28;20533;-68
2020/12/13 04:33:45;;;;;;;4.43;3.00;;;;;;;6.87;nan;95748.44;4979145;28;20490;-68
2020/12/13 04:36:12;;;;;;;5.32;2.83;;;;;;;6.88;nan;95745.75;4979467;28;20290;-68
2020/12/13 04:38:39;;;;;;;3.35;2.78;;;;;;;6.87;nan;95743.25;4979357;28;20713;-68
2020/12/13 04:41:07;;;;;;;5.05;2.50;;;;;;;6.87;nan;95748.44;4979664;28;20593;-69
2020/12/13 04:43:34;;;;;;;8.55;3.17;;;;;;;6.93;nan;95745.47;4978770;28;20509;-68
2020/12/13 04:46:01;;;;;;;3.13;2.50;;;;;;;6.95;nan;95751.38;4979755;28;20198;-70
2020/12/13 04:48:28;;;;;;;2.92;2.20;;;;;;;6.88;nan;95750.09;4978674;28;20698;-69
2020/12/13 04:50:59;;;;;;;3.30;2.50;;;;;;;6.91;nan;95749.94;4975033;28;20284;-71
2020/12/13 04:53:28;;;;;;;4.18;2.20;;;;;;;6.89;nan;95751.75;4977969;28;20585;-76
2020/12/13 04:55:57;;;;;;;4.68;2.97;;;;;;;6.86;nan;95762.28;4974473;28;20194;-70
2020/12/13 04:58:26;;;;;;;3.15;2.40;;;;;;;6.87;nan;95766.53;4978509;28;20316;-73
2020/12/13 05:00:54;;;;;;;2.40;1.92;;;;;;;6.83;nan;95768.47;4979082;28;20236;-70
2020/12/13 05:03:22;;;;;;;3.47;1.95;;;;;;;6.81;nan;95772.06;4978074;28;21083;-70
2020/12/13 05:05:50;;;;;;;4.22;2.60;;;;;;;6.83;nan;95772.81;4978925;28;20458;-71
2020/12/13 05:08:17;;;;;;;3.10;2.30;;;;;;;6.78;nan;95767.09;4978654;28;20222;-71
2020/12/13 05:10:44;;;;;;;2.92;2.17;;;;;;;6.72;nan;95780.41;4978711;28;20668;-70
2020/12/13 05:13:11;;;;;;;3.73;1.87;;;;;;;6.64;nan;95770.50;4978312;28;20760;-72
2020/12/13 05:15:39;;;;;;;2.42;1.85;;;;;;;6.65;nan;95781.69;4978835;28;20846;-71
2020/12/13 05:18:06;;;;;;;4.65;1.70;;;;;;;6.73;nan;95779.47;4979167;28;20205;-71
2020/12/13 05:20:33;;;;;;;4.55;1.75;;;;;;;6.79;nan;95785.09;4982868;28;20599;-70
2020/12/13 05:23:01;;;;;;;1.83;1.50;;;;;;;6.78;nan;95792.97;4977687;28;20615;-71
2020/12/13 05:25:36;;;;;;;2.03;1.20;;;;;;;6.73;nan;95790.66;4977411;28;20237;-69
2020/12/13 05:28:04;;;;;;;2.05;1.30;;;;;;;6.79;nan;95786.88;4975732;28;20217;-69
2020/12/13 05:30:34;;;;;;;1.25;1.00;;;;;;;6.85;nan;95796.84;4979116;28;20711;-70
2020/12/13 05:33:04;;;;;;;3.15;1.10;;;;;;;6.88;nan;95792.31;4978703;28;20846;-70
2020/12/13 05:35:31;;;;;;;2.58;1.20;;;;;;;6.81;nan;95782.41;4978572;28;20660;-71
2020/12/13 05:37:58;;;;;;;3.25;1.10;;;;;;;6.83;nan;95802.09;4978992;28;20316;-72
2020/12/13 05:40:25;;;;;;;1.10;0.90;;;;;;;6.85;nan;95812.34;4978714;28;20565;-72
2020/12/13 05:42:59;;;;;;;1.35;1.00;;;;;;;6.83;nan;95809.84;4979070;28;20853;-71
2020/12/13 05:45:35;;;;;;;9.90;4.55;;;;;;;6.79;nan;95802.38;4978621;28;20249;-73
2020/12/13 05:51:05;;;;;;;1.02;0.93;;;;;;;6.85;nan;95812.34;4978299;28;20715;-72
2020/12/13 05:53:32;;;;;;;1.20;1.10;;;;;;;6.84;nan;95810.69;4977401;28;20267;-71
2020/12/13 05:55:59;;;;;;;1.42;1.23;;;;;;;6.88;nan;95819.91;4978282;28;20445;-71
2020/12/13 05:58:27;;;;;;;1.35;1.08;;;;;;;6.88;nan;95814.75;4977253;28;20618;-69
2020/12/13 06:00:54;;;;;;;3.83;1.70;;;;;;;6.87;nan;95816.53;4978173;28;20626;-69
2020/12/13 06:03:31;;;;;;;8.00;0.97;;;;;;;6.88;nan;95823.34;4977340;28;20221;-70
2020/12/13 06:06:05;;;;;;;1.83;1.00;;;;;;;6.87;nan;95831.19;4974714;28;20487;-69
2020/12/13 06:09:03;;;;;;;1.65;0.90;;;;;;;6.85;nan;95827.88;4977932;28;20560;-70
2020/12/13 06:11:47;;;;;;;1.65;1.55;;;;;;;6.83;nan;95834.88;4977820;28;20280;-69
2020/12/13 06:14:19;;;;;;;1.08;0.80;;;;;;;6.75;nan;95842.25;4978278;28;20928;-70
2020/12/13 06:16:47;;;;;;;4.22;1.40;;;;;;;6.83;nan;95838.31;4978228;28;20194;-70
2020/12/13 06:19:17;;;;;;;1.73;1.00;;;;;;;6.82;nan;95846.16;4977690;28;20754;-70
2020/12/13 06:21:46;;;;;;;1.33;1.05;;;;;;;6.81;nan;95852.25;4981209;28;20214;-70
2020/12/13 06:24:14;;;;;;;2.65;1.30;;;;;;;6.84;nan;95852.91;4976806;28;20253;-69
2020/12/13 06:26:42;;;;;;;2.75;1.83;;;;;;;6.81;nan;95863.44;4976183;28;20293;-69
2020/12/13 06:29:09;;;;;;;18.88;11.45;;;;;;;6.90;nan;95857.72;4978692;28;20316;-71
2020/12/13 06:31:40;;;;;;;4.75;3.42;;;;;;;6.91;nan;95853.38;4977448;28;20621;-71
2020/12/13 06:34:07;;;;;;;2.88;2.03;;;;;;;6.92;nan;95861.03;4977878;28;20547;-73
2020/12/13 06:36:37;;;;;;;2.10;1.73;;;;;;;6.90;nan;95860.28;4978020;28;20524;-71
2020/12/13 06:39:12;;;;;;;1.77;1.30;;;;;;;6.92;nan;95866.19;4977585;28;20635;-72
2020/12/13 06:41:41;;;;;;;1.52;1.33;;;;;;;6.88;nan;95880.25;4975890;28;20575;-70
2020/12/13 06:44:09;;;;;;;4.28;1.20;;;;;;;6.76;nan;95885.28;4977731;28;20257;-70
2020/12/13 06:46:40;;;;;;;2.15;1.20;;;;;;;6.75;nan;95884.47;4978869;28;20512;-71
2020/12/13 06:49:08;;;;;;;2.20;1.50;;;;;;;6.83;nan;95877.09;4977702;28;20703;-69
2020/12/13 06:51:37;;;;;;;3.55;1.58;;;;;;;6.87;nan;95893.28;4977132;28;20900;-70
2020/12/13 06:54:07;;;;;;;3.30;1.70;;;;;;;6.91;nan;95893.00;4976687;28;20647;-70
2020/12/13 06:56:34;;;;;;;2.65;1.52;;;;;;;6.85;nan;95895.94;4977686;28;20279;-69
2020/12/13 06:59:06;;;;;;;3.95;2.40;;;;;;;6.83;nan;95907.28;4978444;28;20248;-70
2020/12/13 07:01:36;;;;;;;3.00;2.43;;;;;;;6.74;nan;95889.72;4977017;28;20241;-72
2020/12/13 07:04:28;;;;;;;3.35;1.85;;;;;;;6.75;nan;95915.50;4976369;28;21166;-71
2020/12/13 07:06:58;;;;;;;4.05;2.80;;;;;;;6.77;nan;95913.66;4972575;28;20861;-69
2020/12/13 07:09:26;;;;;;;8.38;3.38;;;;;;;6.73;nan;95907.00;4976495;28;20267;-69
2020/12/13 07:11:54;;;;;;;3.65;3.00;;;;;;;6.79;nan;95921.34;4977464;28;20190;-71
2020/12/13 07:14:24;;;;;;;5.25;2.70;;;;;;;6.72;nan;95920.03;4976817;28;20245;-71
2020/12/13 07:17:00;;;;;;;5.35;2.40;;;;;;;6.60;nan;95911.22;4977278;28;20198;-71
2020/12/13 07:19:30;;;;;;;6.78;2.70;;;;;;;6.72;nan;95931.22;4975680;28;20275;-71
2020/12/13 07:22:04;;;;;;;5.57;3.13;;;;;;;6.72;nan;95938.13;4979423;28;20329;-69
2020/12/13 07:24:31;;;;;;;3.35;2.70;;;;;;;6.64;nan;95937.72;4975712;28;20975;-71
2020/12/13 07:26:59;;;;;;;4.88;2.78;;;;;;;6.68;nan;95944.38;4978483;28;20760;-71
2020/12/13 07:29:26;;;;;;;4.80;3.00;;;;;;;6.63;nan;95941.25;4977371;28;20228;-70
2020/12/13 07:31:54;;;;;;;3.78;2.72;;;;;;;6.59;nan;95948.34;4977454;28;20280;-70
2020/12/13 07:34:21;;;;;;;2.53;1.92;;;;;;;6.56;nan;95955.44;4977585;28;20538;-71
2020/12/13 07:36:48;;;;;;;4.75;3.05;;;;;;;6.55;nan;95958.94;4976949;28;20197;-70
2020/12/13 07:39:16;;;;;;;4.93;2.38;;;;;;;6.52;nan;95966.84;4976457;28;20624;-69
2020/12/13 07:41:47;;;;;;;3.35;2.80;;;;;;;6.52;nan;95975.44;4976031;28;20263;-69
2020/12/13 07:44:16;;;;;;;3.97;2.90;;;;;;;6.50;nan;95971.28;4975434;28;20229;-70
2020/12/13 07:46:44;;;;;;;6.65;4.70;;;;;;;6.47;nan;95976.63;4974771;28;20281;-70
2020/12/13 07:49:13;;;;;;;6.32;3.17;;;;;;;6.42;nan;95983.81;4976190;28;20287;-70
2020/12/13 07:51:43;;;;;;;4.15;3.15;;;;;;;6.51;nan;95978.97;4973901;28;20288;-69
2020/12/13 07:54:16;;;;;;;5.05;3.08;;;;;;;6.45;nan;95984.47;4975898;28;20652;-70
2020/12/13 07:56:44;;;;;;;5.07;2.90;;;;;;;6.39;nan;95983.97;4977898;28;20669;-70
2020/12/13 07:59:14;;;;;;;4.95;2.47;;;;;;;6.44;nan;95992.28;4977010;28;20725;-72
2020/12/13 08:01:42;;;;;;;10.02;5.05;;;;;;;6.46;nan;95993.03;4974736;28;20264;-71
2020/12/13 08:04:09;;;;;;;5.75;2.95;;;;;;;6.47;nan;95997.31;4978250;28;20357;-73
2020/12/13 08:06:36;;;;;;;5.40;3.47;;;;;;;6.51;nan;95996.22;4983900;28;20284;-73
2020/12/13 08:09:07;;;;;;;6.72;3.60;;;;;;;6.74;nan;96003.50;4984035;28;20253;-72
2020/12/13 08:11:35;;;;;;;3.20;2.72;;;;;;;6.74;nan;96003.50;4980813;28;20628;-70
2020/12/13 08:14:05;;;;;;;2.83;2.60;;;;;;;6.75;nan;96005.16;4979275;28;20300;-71
2020/12/13 08:16:32;;;;;;;3.40;2.42;;;;;;;6.77;nan;96003.34;4979898;28;20822;-70
2020/12/13 08:19:05;;;;;;;3.90;2.95;;;;;;;6.81;nan;96004.81;4978873;28;20236;-70
2020/12/13 08:21:39;;;;;;;6.20;3.67;;;;;;;6.83;nan;96009.00;4983977;28;20484;-69
2020/12/13 08:24:07;;;;;;;4.32;3.00;;;;;;;6.85;nan;96014.91;4979272;28;20242;-69
2020/12/13 08:26:36;;;;;;;6.15;3.15;;;;;;;6.91;nan;96008.56;4980479;28;20256;-71
2020/12/13 08:29:03;;;;;;;4.60;2.92;;;;;;;6.79;nan;96009.25;4979691;28;20583;-70
2020/12/13 08:31:31;;;;;;;4.53;3.35;;;;;;;6.67;nan;96007.34;4979427;28;20704;-71
2020/12/13 08:34:08;;;;;;;4.00;2.67;;;;;;;6.63;nan;96013.63;4979065;28;20313;-69
2020/12/13 08:36:36;;;;;;;4.40;2.95;;;;;;;6.75;nan;96018.09;4979142;28;20260;-70
2020/12/13 08:39:09;;;;;;;5.10;2.92;;;;;;;6.77;nan;96021.44;4978815;28;20224;-70
2020/12/13 08:41:45;;;;;;;6.90;4.30;;;;;;;6.78;nan;96020.53;4979117;28;20229;-69
2020/12/13 08:44:29;;;;;;;7.85;3.38;;;;;;;6.77;nan;96016.28;4979453;28;20586;-70
2020/12/13 08:46:58;;;;;;;3.45;2.97;;;;;;;6.86;nan;96021.75;4975890;28;20571;-69
2020/12/13 08:49:26;;;;;;;7.05;2.88;;;;;;;6.92;nan;96023.16;4978895;28;20222;-69
2020/12/13 08:51:53;;;;;;;5.00;2.45;;;;;;;7.06;nan;96023.22;4979174;28;20201;-70
2020/12/13 08:54:19;;;;;;;4.90;3.53;;;;;;;7.03;nan;96029.41;4977887;28;20532;-69
2020/12/13 08:57:02;;;;;;;9.18;2.85;;;;;;;7.50;nan;96039.59;4975647;28;20212;-69
2020/12/13 08:59:29;;;;;;;6.00;3.20;;;;;;;7.68;nan;96039.31;4979317;28;20433;-69
2020/12/13 09:01:58;;;;;;;7.63;3.22;;;;;;;8.02;nan;96038.94;4977458;28;20298;-69
2020/12/13 09:04:28;;;;;;;6.00;3.00;;;;;;;8.19;nan;96041.38;4978692;28;20850;-70
2020/12/13 09:06:57;;;;;;;4.40;2.30;;;;;;;8.43;nan;96035.47;4975570;28;20516;-69
2020/12/13 09:09:28;;;;;;;4.43;3.20;;;;;;;8.63;nan;96036.84;4978510;28;20472;-71
2020/12/13 09:11:55;;;;;;;6.47;3.67;;;;;;;9.11;nan;96050.09;4974374;28;20536;-70
2020/12/13 09:14:28;;;;;;;8.20;3.37;;;;;;;9.82;nan;96047.91;4978542;28;20476;-70
2020/12/13 09:16:56;;;;;;;4.20;2.90;;;;;;;9.92;nan;96060.19;4974463;28;21171;-70
2020/12/13 09:19:23;;;;;;;12.67;4.67;;;;;;;10.09;nan;96059.09;4977785;28;20472;-69
2020/12/13 09:21:52;;;;;;;7.27;3.20;;;;;;;9.77;nan;96060.38;4982198;28;20452;-69
2020/12/13 09:24:21;;;;;;;17.47;4.27;;;;;;;9.52;nan;96071.56;4978957;28;20874;-69
2020/12/13 09:27:03;;;;;;;5.00;2.83;;;;;;;9.14;nan;96070.66;4978408;28;20991;-70
2020/12/13 09:29:33;;;;;;;3.33;1.63;;;;;;;8.70;nan;96075.25;4977603;28;20555;-69
2020/12/13 09:32:00;;;;;;;3.23;1.87;;;;;;;8.41;nan;96084.03;4978565;28;20909;-69
2020/12/13 09:34:27;;;;;;;5.90;2.00;;;;;;;8.32;nan;96088.94;4977916;28;20993;-70
2020/12/13 09:36:54;;;;;;;3.90;1.93;;;;;;;8.27;nan;96091.00;4979229;28;20910;-71
2020/12/13 09:39:29;;;;;;;3.40;1.93;;;;;;;8.22;nan;96097.38;4976808;28;21125;-70
2020/12/13 09:41:55;;;;;;;6.20;2.07;;;;;;;8.31;nan;96096.84;4974485;28;20823;-70
2020/12/13 09:44:22;;;;;;;2.87;1.80;;;;;;;8.32;nan;96097.56;4978313;28;21074;-70
2020/12/13 09:46:54;;;;;;;5.73;2.43;;;;;;;8.35;nan;96094.78;4978015;28;20852;-70
2020/12/13 09:49:22;;;;;;;4.20;1.60;;;;;;;8.35;nan;96099.97;4978525;28;20462;-69
2020/12/13 09:51:48;;;;;;;7.67;4.90;;;;;;;8.46;nan;96112.25;4978087;28;20795;-70
2020/12/13 09:54:15;;;;;;;15.10;5.20;;;;;;;8.48;nan;96100.88;4976193;28;20559;-69
2020/12/13 09:56:43;;;;;;;11.37;3.17;;;;;;;8.38;nan;96104.13;4978082;28;20943;-69
2020/12/13 09:59:09;;;;;;;2.80;2.00;;;;;;;8.23;nan;96109.44;4977155;28;20853;-69
2020/12/13 10:01:38;;;;;;;4.70;2.43;;;;;;;8.24;nan;96111.91;4978075;28;21009;-70
2020/12/13 10:04:22;;;;;;;3.43;1.60;;;;;;;8.13;nan;96113.44;4973746;28;20949;-69
2020/12/13 10:09:36;;;;;;;2.80;1.80;;;;;;;8.18;nan;96112.25;4974335;28;20499;-69
2020/12/13 10:12:03;;;;;;;3.77;2.03;;;;;;;8.18;nan;96116.59;4977375;28;21011;-72
2020/12/13 10:14:30;;;;;;;4.37;2.00;;;;;;;8.17;nan;96120.13;4978110;28;20834;-69
2020/12/13 10:16:57;;;;;;;3.10;1.83;;;;;;;8.09;nan;96122.34;4977934;28;20543;-71
2020/12/13 10:19:27;;;;;;;2.50;1.20;;;;;;;8.13;nan;96122.88;4976687;28;20480;-69
2020/12/13 10:21:54;;;;;;;5.50;1.60;;;;;;;8.20;nan;96120.81;4981049;28;20900;-69
2020/12/13 10:24:21;;;;;;;10.23;2.70;;;;;;;8.12;nan;96116.97;4977621;28;21156;-68
2020/12/13 10:26:48;;;;;;;3.83;1.63;;;;;;;8.26;nan;96119.59;4977235;28;20962;-68
2020/12/13 10:29:15;;;;;;;5.40;2.77;;;;;;;8.36;nan;96124.13;4978545;28;21149;-68
2020/12/13 10:31:42;;;;;;;7.83;2.03;;;;;;;8.34;nan;96124.22;4977323;28;20448;-69
2020/12/13 10:34:11;;;;;;;5.20;1.90;;;;;;;8.29;nan;96125.44;4976909;28;20869;-69
2020/12/13 10:36:39;;;;;;;4.43;1.90;;;;;;;8.23;nan;96117.22;4977548;28;20481;-70
2020/12/13 10:39:09;;;;;;;5.93;2.23;;;;;;;8.25;nan;96116.16;4977056;28;20486;-72
2020/12/13 10:41:38;;;;;;;4.30;2.40;;;;;;;8.10;nan;96129.19;4976706;28;20942;-70
2020/12/13 10:44:05;;;;;;;5.00;2.30;;;;;;;8.10;nan;96119.66;4975726;28;20492;-70
2020/12/13 10:46:32;;;;;;;6.20;2.27;;;;;;;7.93;nan;96117.22;4977693;28;20590;-69
2020/12/13 10:48:59;;;;;;;5.40;2.27;;;;;;;7.97;nan;96123.06;4977180;28;20460;-70
2020/12/13 10:51:26;;;;;;;5.00;2.50;;;;;;;7.92;nan;96125.09;4976811;28;20549;-69
2020/12/13 10:53:54;;;;;;;7.70;3.50;;;;;;;8.00;nan;96117.69;4976622;28;20492;-70
2020/12/13 10:56:22;;;;;;;6.17;2.47;;;;;;;7.95;nan;96124.94;4976491;28;20530;-70
2020/12/13 10:58:49;;;;;;;2.57;2.17;;;;;;;8.02;nan;96126.22;4976092;28;20791;-72
2020/12/13 11:01:15;;;;;;;7.03;2.43;;;;;;;8.03;nan;96117.53;4976496;28;20811;-73
2020/12/13 11:03:43;;;;;;;5.50;2.40;;;;;;;7.78;nan;96118.16;4976940;28;20468;-72
2020/12/13 11:06:10;;;;;;;6.03;1.70;;;;;;;7.59;nan;96122.72;4977876;28;20938;-72
2020/12/13 11:08:37;;;;;;;2.40;1.20;;;;;;;7.49;nan;96131.09;4976555;28;20923;-71
2020/12/13 11:11:06;;;;;;;2.90;1.20;;;;;;;7.44;nan;96122.78;4977827;28;20449;-71
2020/12/13 11:13:33;;;;;;;11.53;1.20;;;;;;;7.40;nan;96124.72;4976544;28;20539;-72
2020/12/13 11:16:00;;;;;;;3.67;1.50;;;;;;;7.44;nan;96127.97;4977458;28;20940;-72
2020/12/13 11:18:30;;;;;;;6.03;1.80;;;;;;;7.50;nan;96131.03;4975058;28;20224;-72
2020/12/13 11:20:58;;;;;;;2.23;1.10;;;;;;;7.49;nan;96126.75;4975997;28;20475;-72
2020/12/13 11:23:26;;;;;;;1.70;0.90;;;;;;;7.47;nan;96130.34;4974878;28;20551;-72
2020/12/13 11:25:54;;;;;;;2.27;1.30;;;;;;;7.45;nan;96130.44;4977837;28;20765;-71
2020/12/13 11:28:22;;;;;;;2.80;1.40;;;;;;;7.45;nan;96129.63;4975366;28;20468;-73
2020/12/13 11:30:50;;;;;;;2.40;1.40;;;;;;;7.35;nan;96131.09;4976425;28;20452;-72
2020/12/13 11:33:17;;;;;;;2.20;1.57;;;;;;;7.39;nan;96128.22;4975315;28;20464;-71
2020/12/13 11:35:44;;;;;;;2.72;1.70;;;;;;;7.52;nan;96130.94;4976668;28;20552;-72
2020/12/13 11:38:12;;;;;;;9.77;2.10;;;;;;;7.51;nan;96127.50;4975799;28;20205;-72
2020/12/13 11:40:39;;;;;;;6.97;1.27;;;;;;;7.45;nan;96124.44;4976814;28;20874;-72
2020/12/13 11:43:06;;;;;;;2.13;1.38;;;;;;;7.37;nan;96122.28;4975709;28;20569;-72
2020/12/13 11:45:34;;;;;;;5.00;2.05;;;;;;;7.38;nan;96120.53;4976534;28;20233;-72
2020/12/13 11:48:02;;;;;;;2.60;1.90;;;;;;;7.39;nan;96127.38;4975790;28;20700;-72
2020/12/13 11:50:29;;;;;;;5.35;1.92;;;;;;;7.35;nan;96129.31;4975165;28;20460;-72
2020/12/13 11:52:56;;;;;;;10.63;2.50;;;;;;;7.35;nan;96125.91;4971699;28;20292;-72
2020/12/13 11:55:23;;;;;;;9.80;2.43;;;;;;;7.38;nan;96123.13;4974671;28;20539;-73
2020/12/13 11:57:49;;;;;;;9.03;2.50;;;;;;;7.29;nan;96118.47;4976219;28;20459;-71
2020/12/13 12:00:17;;;;;;;10.57;2.33;;;;;;;7.27;nan;96120.28;4975704;28;20568;-71
2020/12/13 12:02:49;;;;;;;4.65;2.05;;;;;;;7.39;nan;96124.78;4975938;28;20444;-72
2020/12/13 12:05:16;;;;;;;8.27;3.15;;;;;;;7.56;nan;96116.88;4976419;28;20233;-72
2020/12/13 12:07:44;;;;;;;9.23;2.57;;;;;;;7.72;nan;96115.09;4976725;28;20205;-72
2020/12/13 12:10:11;;;;;;;13.07;3.37;;;;;;;7.83;nan;96120.47;4975985;28;20489;-72